Henry, Tennessee
Current Conditions -  °F | °C
As of 11:15 AM on Thursday 18 Dec 2014 (Local Time) from KPHT Reporting Station
Overcast Overcast  
Wind Chill: 29°   Ceiling: 1000
Heat Index: 34°   Visibility: 10mi
Dew Point: 30°   Wind: 6mph
Humidity: 87%   Direction: 20°NNE
Pressure: 30.26"   Gusts: NA
Location:  36.2°N, 88.42°W
Report Text: KPHT 181715Z AUTO 02005KT 10SM BKN010 OVC050 01/M01 A3026 RMK
Loading
Personal Weather Stations






























Interactive Weather Map New forecast layout! Learn more

10-Day Weather Forecast

Advertisements
Track Severe Weather on mobile